sensor_id;sensor_type;location;lat;lon;timestamp;P1;durP1;ratioP1;P2;durP2;ratioP2
52972;SDS011;38837;48.916;2.336;2024-01-11T00:00:39;19.27;;;12.68;;
52972;SDS011;38837;48.916;2.336;2024-01-11T00:02:41;19.88;;;13.20;;
52972;SDS011;38837;48.916;2.336;2024-01-11T00:04:43;21.00;;;13.30;;
52972;SDS011;38837;48.916;2.336;2024-01-11T00:06:45;20.52;;;13.32;;
52972;SDS011;38837;48.916;2.336;2024-01-11T00:08:47;21.65;;;12.77;;
52972;SDS011;38837;48.916;2.336;2024-01-11T00:10:49;22.48;;;13.30;;
52972;SDS011;38837;48.916;2.336;2024-01-11T00:12:51;20.88;;;13.48;;
52972;SDS011;38837;48.916;2.336;2024-01-11T00:14:53;21.30;;;13.70;;
52972;SDS011;38837;48.916;2.336;2024-01-11T00:16:55;23.17;;;13.60;;
52972;SDS011;38837;48.916;2.336;2024-01-11T00:18:57;22.20;;;13.23;;
52972;SDS011;38837;48.916;2.336;2024-01-11T00:20:59;21.05;;;13.15;;
52972;SDS011;38837;48.916;2.336;2024-01-11T00:23:00;19.88;;;13.45;;
52972;SDS011;38837;48.916;2.336;2024-01-11T00:25:02;21.85;;;13.20;;
52972;SDS011;38837;48.916;2.336;2024-01-11T00:27:05;21.38;;;13.93;;
52972;SDS011;38837;48.916;2.336;2024-01-11T00:29:07;22.95;;;13.52;;
52972;SDS011;38837;48.916;2.336;2024-01-11T00:31:10;22.20;;;13.23;;
52972;SDS011;38837;48.916;2.336;2024-01-11T00:33:12;22.75;;;12.95;;
52972;SDS011;38837;48.916;2.336;2024-01-11T00:35:14;21.92;;;13.38;;
52972;SDS011;38837;48.916;2.336;2024-01-11T00:37:16;21.55;;;12.93;;
52972;SDS011;38837;48.916;2.336;2024-01-11T00:39:18;22.58;;;13.07;;
52972;SDS011;38837;48.916;2.336;2024-01-11T00:41:19;25.13;;;15.73;;
52972;SDS011;38837;48.916;2.336;2024-01-11T00:43:21;20.33;;;13.25;;
52972;SDS011;38837;48.916;2.336;2024-01-11T00:45:26;21.33;;;13.30;;
52972;SDS011;38837;48.916;2.336;2024-01-11T00:47:28;21.05;;;13.05;;
52972;SDS011;38837;48.916;2.336;2024-01-11T00:49:30;18.45;;;11.68;;
52972;SDS011;38837;48.916;2.336;2024-01-11T00:51:32;21.77;;;13.07;;
52972;SDS011;38837;48.916;2.336;2024-01-11T00:53:34;20.17;;;12.48;;
52972;SDS011;38837;48.916;2.336;2024-01-11T00:55:37;21.50;;;14.23;;
52972;SDS011;38837;48.916;2.336;2024-01-11T00:57:39;19.15;;;13.10;;
52972;SDS011;38837;48.916;2.336;2024-01-11T00:59:41;19.40;;;12.85;;
52972;SDS011;38837;48.916;2.336;2024-01-11T01:01:47;23.45;;;13.10;;
52972;SDS011;38837;48.916;2.336;2024-01-11T01:03:50;23.73;;;13.82;;
52972;SDS011;38837;48.916;2.336;2024-01-11T01:05:51;21.73;;;13.75;;
52972;SDS011;38837;48.916;2.336;2024-01-11T01:07:54;19.33;;;13.02;;
52972;SDS011;38837;48.916;2.336;2024-01-11T01:09:55;20.17;;;13.68;;
52972;SDS011;38837;48.916;2.336;2024-01-11T01:11:57;21.10;;;13.38;;
52972;SDS011;38837;48.916;2.336;2024-01-11T01:13:59;19.80;;;12.82;;
52972;SDS011;38837;48.916;2.336;2024-01-11T01:16:01;21.15;;;12.88;;
52972;SDS011;38837;48.916;2.336;2024-01-11T01:18:03;22.00;;;14.25;;
52972;SDS011;38837;48.916;2.336;2024-01-11T01:20:06;24.30;;;13.50;;
52972;SDS011;38837;48.916;2.336;2024-01-11T01:22:12;21.98;;;13.88;;
52972;SDS011;38837;48.916;2.336;2024-01-11T01:24:14;22.80;;;12.35;;
52972;SDS011;38837;48.916;2.336;2024-01-11T01:26:16;25.60;;;14.02;;
52972;SDS011;38837;48.916;2.336;2024-01-11T01:28:17;18.73;;;13.32;;
52972;SDS011;38837;48.916;2.336;2024-01-11T01:30:19;22.45;;;13.85;;
52972;SDS011;38837;48.916;2.336;2024-01-11T01:32:21;24.60;;;13.98;;
52972;SDS011;38837;48.916;2.336;2024-01-11T01:34:24;19.40;;;12.18;;
52972;SDS011;38837;48.916;2.336;2024-01-11T01:36:26;19.38;;;13.30;;
52972;SDS011;38837;48.916;2.336;2024-01-11T01:38:28;21.50;;;13.38;;
52972;SDS011;38837;48.916;2.336;2024-01-11T01:40:32;25.52;;;13.75;;
52972;SDS011;38837;48.916;2.336;2024-01-11T01:42:34;20.58;;;13.82;;
52972;SDS011;38837;48.916;2.336;2024-01-11T01:44:36;22.02;;;14.05;;
52972;SDS011;38837;48.916;2.336;2024-01-11T01:46:38;21.05;;;13.85;;
52972;SDS011;38837;48.916;2.336;2024-01-11T01:48:40;23.15;;;14.00;;
52972;SDS011;38837;48.916;2.336;2024-01-11T01:50:43;23.88;;;14.35;;
52972;SDS011;38837;48.916;2.336;2024-01-11T01:52:51;23.55;;;14.35;;
52972;SDS011;38837;48.916;2.336;2024-01-11T01:54:53;21.48;;;13.70;;
52972;SDS011;38837;48.916;2.336;2024-01-11T01:56:57;26.13;;;14.32;;
52972;SDS011;38837;48.916;2.336;2024-01-11T01:59:00;24.80;;;14.40;;
52972;SDS011;38837;48.916;2.336;2024-01-11T02:01:03;21.40;;;13.05;;
52972;SDS011;38837;48.916;2.336;2024-01-11T02:03:09;22.17;;;14.45;;
52972;SDS011;38837;48.916;2.336;2024-01-11T02:05:11;20.30;;;13.38;;
52972;SDS011;38837;48.916;2.336;2024-01-11T02:07:14;23.05;;;14.18;;
52972;SDS011;38837;48.916;2.336;2024-01-11T02:09:17;25.35;;;14.88;;
52972;SDS011;38837;48.916;2.336;2024-01-11T02:11:19;22.10;;;13.10;;
52972;SDS011;38837;48.916;2.336;2024-01-11T02:13:22;22.08;;;13.98;;
52972;SDS011;38837;48.916;2.336;2024-01-11T02:15:24;22.80;;;13.93;;
52972;SDS011;38837;48.916;2.336;2024-01-11T02:17:26;21.55;;;13.40;;
52972;SDS011;38837;48.916;2.336;2024-01-11T02:19:28;22.67;;;14.00;;
52972;SDS011;38837;48.916;2.336;2024-01-11T02:21:31;19.83;;;12.73;;
52972;SDS011;38837;48.916;2.336;2024-01-11T02:23:36;24.10;;;14.25;;
52972;SDS011;38837;48.916;2.336;2024-01-11T02:25:47;19.88;;;13.63;;
52972;SDS011;38837;48.916;2.336;2024-01-11T02:27:50;22.13;;;13.98;;
52972;SDS011;38837;48.916;2.336;2024-01-11T02:29:52;21.90;;;13.75;;
52972;SDS011;38837;48.916;2.336;2024-01-11T02:31:56;21.65;;;13.85;;
52972;SDS011;38837;48.916;2.336;2024-01-11T02:34:00;22.85;;;14.30;;
52972;SDS011;38837;48.916;2.336;2024-01-11T02:36:02;19.88;;;13.57;;
52972;SDS011;38837;48.916;2.336;2024-01-11T02:38:04;22.60;;;14.25;;
52972;SDS011;38837;48.916;2.336;2024-01-11T02:40:07;19.15;;;13.07;;
52972;SDS011;38837;48.916;2.336;2024-01-11T02:42:09;21.80;;;14.63;;
52972;SDS011;38837;48.916;2.336;2024-01-11T02:44:11;21.50;;;13.38;;
52972;SDS011;38837;48.916;2.336;2024-01-11T02:46:16;20.75;;;14.38;;
52972;SDS011;38837;48.916;2.336;2024-01-11T02:48:18;22.27;;;13.02;;
52972;SDS011;38837;48.916;2.336;2024-01-11T02:50:20;24.00;;;14.38;;
52972;SDS011;38837;48.916;2.336;2024-01-11T02:52:23;23.90;;;13.25;;
52972;SDS011;38837;48.916;2.336;2024-01-11T02:54:25;23.00;;;14.10;;
52972;SDS011;38837;48.916;2.336;2024-01-11T02:56:27;20.13;;;13.15;;
52972;SDS011;38837;48.916;2.336;2024-01-11T02:58:29;20.70;;;14.07;;
52972;SDS011;38837;48.916;2.336;2024-01-11T03:00:31;20.13;;;13.35;;
52972;SDS011;38837;48.916;2.336;2024-01-11T03:02:33;22.83;;;13.30;;
52972;SDS011;38837;48.916;2.336;2024-01-11T03:04:34;21.17;;;14.48;;
52972;SDS011;38837;48.916;2.336;2024-01-11T03:06:36;23.90;;;14.05;;
52972;SDS011;38837;48.916;2.336;2024-01-11T03:08:38;22.83;;;14.38;;
52972;SDS011;38837;48.916;2.336;2024-01-11T03:10:40;18.50;;;12.63;;
52972;SDS011;38837;48.916;2.336;2024-01-11T03:12:42;19.83;;;12.77;;
52972;SDS011;38837;48.916;2.336;2024-01-11T03:14:44;22.83;;;14.15;;
52972;SDS011;38837;48.916;2.336;2024-01-11T03:16:46;20.58;;;13.35;;
52972;SDS011;38837;48.916;2.336;2024-01-11T03:18:48;20.45;;;13.00;;
52972;SDS011;38837;48.916;2.336;2024-01-11T03:20:50;22.13;;;13.45;;
52972;SDS011;38837;48.916;2.336;2024-01-11T03:22:52;23.15;;;13.60;;
52972;SDS011;38837;48.916;2.336;2024-01-11T03:24:54;23.08;;;14.27;;
52972;SDS011;38837;48.916;2.336;2024-01-11T03:26:56;22.58;;;13.98;;
52972;SDS011;38837;48.916;2.336;2024-01-11T03:28:58;23.05;;;13.95;;
52972;SDS011;38837;48.916;2.336;2024-01-11T03:31:00;21.85;;;14.30;;
52972;SDS011;38837;48.916;2.336;2024-01-11T03:33:02;21.48;;;14.07;;
52972;SDS011;38837;48.916;2.336;2024-01-11T03:35:06;22.55;;;13.15;;
52972;SDS011;38837;48.916;2.336;2024-01-11T03:37:09;20.90;;;13.18;;
52972;SDS011;38837;48.916;2.336;2024-01-11T03:39:11;23.15;;;13.98;;
52972;SDS011;38837;48.916;2.336;2024-01-11T03:41:12;22.13;;;13.77;;
52972;SDS011;38837;48.916;2.336;2024-01-11T03:43:16;22.65;;;14.55;;
52972;SDS011;38837;48.916;2.336;2024-01-11T03:45:19;22.17;;;13.75;;
52972;SDS011;38837;48.916;2.336;2024-01-11T03:47:21;23.55;;;14.32;;
52972;SDS011;38837;48.916;2.336;2024-01-11T03:49:23;26.67;;;14.38;;
52972;SDS011;38837;48.916;2.336;2024-01-11T03:51:25;20.15;;;14.00;;
52972;SDS011;38837;48.916;2.336;2024-01-11T03:53:28;22.25;;;13.88;;
52972;SDS011;38837;48.916;2.336;2024-01-11T03:55:30;20.80;;;13.57;;
52972;SDS011;38837;48.916;2.336;2024-01-11T03:57:32;24.65;;;14.15;;
52972;SDS011;38837;48.916;2.336;2024-01-11T03:59:34;22.02;;;13.93;;
52972;SDS011;38837;48.916;2.336;2024-01-11T04:01:42;22.27;;;13.82;;
52972;SDS011;38837;48.916;2.336;2024-01-11T04:03:44;22.02;;;13.95;;
52972;SDS011;38837;48.916;2.336;2024-01-11T04:05:46;21.02;;;14.02;;
52972;SDS011;38837;48.916;2.336;2024-01-11T04:07:48;21.60;;;13.45;;
52972;SDS011;38837;48.916;2.336;2024-01-11T04:09:50;23.05;;;14.85;;
52972;SDS011;38837;48.916;2.336;2024-01-11T04:11:52;23.55;;;14.13;;
52972;SDS011;38837;48.916;2.336;2024-01-11T04:13:54;22.20;;;13.63;;
52972;SDS011;38837;48.916;2.336;2024-01-11T04:15:56;23.17;;;12.80;;
52972;SDS011;38837;48.916;2.336;2024-01-11T04:17:58;24.27;;;14.90;;
52972;SDS011;38837;48.916;2.336;2024-01-11T04:20:00;21.60;;;12.93;;
52972;SDS011;38837;48.916;2.336;2024-01-11T04:22:02;22.85;;;14.27;;
52972;SDS011;38837;48.916;2.336;2024-01-11T04:24:04;22.38;;;14.43;;
52972;SDS011;38837;48.916;2.336;2024-01-11T04:26:09;21.85;;;14.02;;
52972;SDS011;38837;48.916;2.336;2024-01-11T04:28:11;22.20;;;14.63;;
52972;SDS011;38837;48.916;2.336;2024-01-11T04:30:13;23.52;;;15.40;;
52972;SDS011;38837;48.916;2.336;2024-01-11T04:32:15;23.35;;;14.05;;
52972;SDS011;38837;48.916;2.336;2024-01-11T04:34:17;20.85;;;13.85;;
52972;SDS011;38837;48.916;2.336;2024-01-11T04:36:19;22.98;;;14.70;;
52972;SDS011;38837;48.916;2.336;2024-01-11T04:38:21;24.63;;;14.75;;
52972;SDS011;38837;48.916;2.336;2024-01-11T04:40:23;23.35;;;14.73;;
52972;SDS011;38837;48.916;2.336;2024-01-11T04:42:26;23.00;;;14.18;;
52972;SDS011;38837;48.916;2.336;2024-01-11T04:44:29;20.40;;;13.80;;
52972;SDS011;38837;48.916;2.336;2024-01-11T04:46:31;20.17;;;13.25;;
52972;SDS011;38837;48.916;2.336;2024-01-11T04:48:32;25.25;;;14.20;;
52972;SDS011;38837;48.916;2.336;2024-01-11T04:50:34;22.73;;;13.70;;
52972;SDS011;38837;48.916;2.336;2024-01-11T04:52:36;22.45;;;14.15;;
52972;SDS011;38837;48.916;2.336;2024-01-11T04:54:38;21.80;;;13.85;;
52972;SDS011;38837;48.916;2.336;2024-01-11T04:56:40;22.20;;;13.63;;
52972;SDS011;38837;48.916;2.336;2024-01-11T04:58:42;23.10;;;14.18;;
52972;SDS011;38837;48.916;2.336;2024-01-11T05:00:48;22.92;;;14.45;;
52972;SDS011;38837;48.916;2.336;2024-01-11T05:02:50;22.55;;;13.75;;
52972;SDS011;38837;48.916;2.336;2024-01-11T05:04:52;20.77;;;14.02;;
52972;SDS011;38837;48.916;2.336;2024-01-11T05:06:54;21.77;;;14.13;;
52972;SDS011;38837;48.916;2.336;2024-01-11T05:08:56;21.15;;;13.10;;
52972;SDS011;38837;48.916;2.336;2024-01-11T05:10:58;22.40;;;14.45;;
52972;SDS011;38837;48.916;2.336;2024-01-11T05:13:00;23.92;;;15.07;;
52972;SDS011;38837;48.916;2.336;2024-01-11T05:15:02;23.33;;;13.93;;
52972;SDS011;38837;48.916;2.336;2024-01-11T05:17:04;19.42;;;12.82;;
52972;SDS011;38837;48.916;2.336;2024-01-11T05:19:06;24.55;;;13.32;;
52972;SDS011;38837;48.916;2.336;2024-01-11T05:21:08;21.80;;;13.82;;
52972;SDS011;38837;48.916;2.336;2024-01-11T05:23:10;22.38;;;13.85;;
52972;SDS011;38837;48.916;2.336;2024-01-11T05:25:13;20.75;;;13.15;;
52972;SDS011;38837;48.916;2.336;2024-01-11T05:27:15;20.25;;;13.00;;
52972;SDS011;38837;48.916;2.336;2024-01-11T05:29:17;22.73;;;13.32;;
52972;SDS011;38837;48.916;2.336;2024-01-11T05:31:19;25.65;;;13.98;;
52972;SDS011;38837;48.916;2.336;2024-01-11T05:33:21;21.38;;;13.02;;
52972;SDS011;38837;48.916;2.336;2024-01-11T05:35:23;20.30;;;12.90;;
52972;SDS011;38837;48.916;2.336;2024-01-11T05:37:25;22.40;;;13.13;;
52972;SDS011;38837;48.916;2.336;2024-01-11T05:39:27;24.50;;;13.05;;
52972;SDS011;38837;48.916;2.336;2024-01-11T05:41:29;24.90;;;12.95;;
52972;SDS011;38837;48.916;2.336;2024-01-11T05:43:31;23.25;;;14.02;;
52972;SDS011;38837;48.916;2.336;2024-01-11T05:45:33;20.20;;;13.38;;
52972;SDS011;38837;48.916;2.336;2024-01-11T05:47:48;20.00;;;13.35;;
52972;SDS011;38837;48.916;2.336;2024-01-11T05:49:50;23.25;;;14.05;;
52972;SDS011;38837;48.916;2.336;2024-01-11T05:51:52;22.83;;;13.73;;
52972;SDS011;38837;48.916;2.336;2024-01-11T05:53:54;21.67;;;12.80;;
52972;SDS011;38837;48.916;2.336;2024-01-11T05:55:56;24.35;;;12.88;;
52972;SDS011;38837;48.916;2.336;2024-01-11T05:57:58;22.73;;;11.93;;
52972;SDS011;38837;48.916;2.336;2024-01-11T06:00:00;21.35;;;13.30;;
52972;SDS011;38837;48.916;2.336;2024-01-11T06:02:02;20.10;;;12.68;;
52972;SDS011;38837;48.916;2.336;2024-01-11T06:04:04;21.35;;;13.30;;
52972;SDS011;38837;48.916;2.336;2024-01-11T06:06:07;21.20;;;12.60;;
52972;SDS011;38837;48.916;2.336;2024-01-11T06:08:10;22.05;;;13.90;;
52972;SDS011;38837;48.916;2.336;2024-01-11T06:10:12;22.38;;;13.05;;
52972;SDS011;38837;48.916;2.336;2024-01-11T06:12:14;20.42;;;13.52;;
52972;SDS011;38837;48.916;2.336;2024-01-11T06:14:16;22.63;;;13.98;;
52972;SDS011;38837;48.916;2.336;2024-01-11T06:16:18;22.88;;;13.48;;
52972;SDS011;38837;48.916;2.336;2024-01-11T06:18:20;20.92;;;13.45;;
52972;SDS011;38837;48.916;2.336;2024-01-11T06:20:22;21.58;;;13.98;;
52972;SDS011;38837;48.916;2.336;2024-01-11T06:22:24;21.98;;;13.05;;
52972;SDS011;38837;48.916;2.336;2024-01-11T06:24:26;24.40;;;14.77;;
52972;SDS011;38837;48.916;2.336;2024-01-11T06:26:28;20.20;;;13.02;;
52972;SDS011;38837;48.916;2.336;2024-01-11T06:28:30;21.95;;;13.63;;
52972;SDS011;38837;48.916;2.336;2024-01-11T06:30:36;20.67;;;13.55;;
52972;SDS011;38837;48.916;2.336;2024-01-11T06:32:38;19.35;;;12.73;;
52972;SDS011;38837;48.916;2.336;2024-01-11T06:34:40;24.38;;;13.35;;
52972;SDS011;38837;48.916;2.336;2024-01-11T06:36:46;22.73;;;13.45;;
52972;SDS011;38837;48.916;2.336;2024-01-11T06:38:48;23.83;;;14.13;;
52972;SDS011;38837;48.916;2.336;2024-01-11T06:40:50;20.35;;;13.38;;
52972;SDS011;38837;48.916;2.336;2024-01-11T06:42:52;23.50;;;13.48;;
52972;SDS011;38837;48.916;2.336;2024-01-11T06:44:54;25.20;;;14.43;;
52972;SDS011;38837;48.916;2.336;2024-01-11T06:46:56;22.02;;;13.35;;
52972;SDS011;38837;48.916;2.336;2024-01-11T06:48:58;21.80;;;12.68;;
52972;SDS011;38837;48.916;2.336;2024-01-11T06:51:00;22.20;;;12.70;;
52972;SDS011;38837;48.916;2.336;2024-01-11T06:53:03;26.67;;;14.88;;
52972;SDS011;38837;48.916;2.336;2024-01-11T06:55:06;23.85;;;14.27;;
52972;SDS011;38837;48.916;2.336;2024-01-11T06:57:08;21.77;;;13.32;;
52972;SDS011;38837;48.916;2.336;2024-01-11T06:59:10;22.10;;;13.55;;
52972;SDS011;38837;48.916;2.336;2024-01-11T07:01:12;22.58;;;13.07;;
52972;SDS011;38837;48.916;2.336;2024-01-11T07:03:14;19.60;;;12.20;;
52972;SDS011;38837;48.916;2.336;2024-01-11T07:05:16;23.23;;;13.15;;
52972;SDS011;38837;48.916;2.336;2024-01-11T07:07:18;20.42;;;13.00;;
52972;SDS011;38837;48.916;2.336;2024-01-11T07:09:20;24.67;;;14.10;;
52972;SDS011;38837;48.916;2.336;2024-01-11T07:11:22;20.85;;;13.57;;
52972;SDS011;38837;48.916;2.336;2024-01-11T07:13:24;20.38;;;13.02;;
52972;SDS011;38837;48.916;2.336;2024-01-11T07:15:26;19.90;;;12.38;;
52972;SDS011;38837;48.916;2.336;2024-01-11T07:17:28;21.90;;;13.20;;
52972;SDS011;38837;48.916;2.336;2024-01-11T07:19:29;21.95;;;13.15;;
52972;SDS011;38837;48.916;2.336;2024-01-11T07:21:32;18.40;;;12.48;;
52972;SDS011;38837;48.916;2.336;2024-01-11T07:23:34;24.33;;;14.18;;
52972;SDS011;38837;48.916;2.336;2024-01-11T07:25:35;20.73;;;13.00;;
52972;SDS011;38837;48.916;2.336;2024-01-11T07:27:37;20.65;;;12.60;;
52972;SDS011;38837;48.916;2.336;2024-01-11T07:29:39;19.88;;;12.68;;
52972;SDS011;38837;48.916;2.336;2024-01-11T07:31:41;21.77;;;13.85;;
52972;SDS011;38837;48.916;2.336;2024-01-11T07:33:43;22.88;;;13.57;;
52972;SDS011;38837;48.916;2.336;2024-01-11T07:35:47;21.17;;;12.23;;
52972;SDS011;38837;48.916;2.336;2024-01-11T07:37:49;20.02;;;12.48;;
52972;SDS011;38837;48.916;2.336;2024-01-11T07:39:51;26.65;;;14.18;;
52972;SDS011;38837;48.916;2.336;2024-01-11T07:41:53;22.70;;;13.55;;
52972;SDS011;38837;48.916;2.336;2024-01-11T07:43:55;22.70;;;14.13;;
52972;SDS011;38837;48.916;2.336;2024-01-11T07:46:01;23.10;;;13.05;;
52972;SDS011;38837;48.916;2.336;2024-01-11T07:48:05;24.80;;;14.15;;
52972;SDS011;38837;48.916;2.336;2024-01-11T07:50:07;23.08;;;13.15;;
52972;SDS011;38837;48.916;2.336;2024-01-11T07:52:13;22.85;;;13.60;;
52972;SDS011;38837;48.916;2.336;2024-01-11T07:54:18;24.67;;;14.02;;
52972;SDS011;38837;48.916;2.336;2024-01-11T07:56:20;24.30;;;13.95;;
52972;SDS011;38837;48.916;2.336;2024-01-11T07:58:22;25.75;;;14.30;;
52972;SDS011;38837;48.916;2.336;2024-01-11T08:00:24;24.48;;;14.35;;
52972;SDS011;38837;48.916;2.336;2024-01-11T08:02:26;28.15;;;14.20;;
52972;SDS011;38837;48.916;2.336;2024-01-11T08:04:28;24.60;;;12.95;;
52972;SDS011;38837;48.916;2.336;2024-01-11T08:06:30;23.10;;;13.52;;
52972;SDS011;38837;48.916;2.336;2024-01-11T08:08:32;23.48;;;13.55;;
52972;SDS011;38837;48.916;2.336;2024-01-11T08:10:33;24.33;;;13.63;;
52972;SDS011;38837;48.916;2.336;2024-01-11T08:12:36;26.15;;;13.73;;
52972;SDS011;38837;48.916;2.336;2024-01-11T08:14:39;22.17;;;13.83;;
52972;SDS011;38837;48.916;2.336;2024-01-11T08:18:45;25.20;;;13.00;;
52972;SDS011;38837;48.916;2.336;2024-01-11T08:20:47;24.13;;;13.88;;
52972;SDS011;38837;48.916;2.336;2024-01-11T08:22:50;22.75;;;13.07;;
52972;SDS011;38837;48.916;2.336;2024-01-11T08:24:52;30.98;;;13.50;;
52972;SDS011;38837;48.916;2.336;2024-01-11T08:26:54;22.58;;;13.93;;
52972;SDS011;38837;48.916;2.336;2024-01-11T08:28:56;22.75;;;13.65;;
52972;SDS011;38837;48.916;2.336;2024-01-11T08:30:58;28.05;;;14.60;;
52972;SDS011;38837;48.916;2.336;2024-01-11T08:33:00;33.03;;;14.57;;
52972;SDS011;38837;48.916;2.336;2024-01-11T08:35:02;23.25;;;13.35;;
52972;SDS011;38837;48.916;2.336;2024-01-11T08:37:05;21.87;;;13.20;;
52972;SDS011;38837;48.916;2.336;2024-01-11T08:39:07;24.20;;;13.82;;
52972;SDS011;38837;48.916;2.336;2024-01-11T08:41:14;20.45;;;12.77;;
52972;SDS011;38837;48.916;2.336;2024-01-11T08:43:16;28.10;;;14.38;;
52972;SDS011;38837;48.916;2.336;2024-01-11T08:45:18;22.27;;;13.52;;
52972;SDS011;38837;48.916;2.336;2024-01-11T08:47:20;24.25;;;13.52;;
52972;SDS011;38837;48.916;2.336;2024-01-11T08:49:22;23.10;;;14.13;;
52972;SDS011;38837;48.916;2.336;2024-01-11T08:51:24;26.10;;;14.35;;
52972;SDS011;38837;48.916;2.336;2024-01-11T08:53:26;23.88;;;13.93;;
52972;SDS011;38837;48.916;2.336;2024-01-11T08:55:28;21.90;;;12.73;;
52972;SDS011;38837;48.916;2.336;2024-01-11T08:57:30;23.67;;;13.52;;
52972;SDS011;38837;48.916;2.336;2024-01-11T08:59:32;24.45;;;13.55;;
52972;SDS011;38837;48.916;2.336;2024-01-11T09:01:35;28.65;;;14.20;;
52972;SDS011;38837;48.916;2.336;2024-01-11T09:03:37;26.52;;;14.93;;
52972;SDS011;38837;48.916;2.336;2024-01-11T09:05:39;30.42;;;14.48;;
52972;SDS011;38837;48.916;2.336;2024-01-11T09:07:41;29.80;;;14.90;;
52972;SDS011;38837;48.916;2.336;2024-01-11T09:09:44;24.58;;;14.30;;
52972;SDS011;38837;48.916;2.336;2024-01-11T09:11:56;30.27;;;14.95;;
52972;SDS011;38837;48.916;2.336;2024-01-11T09:13:58;22.90;;;13.23;;
52972;SDS011;38837;48.916;2.336;2024-01-11T09:16:00;26.08;;;14.82;;
52972;SDS011;38837;48.916;2.336;2024-01-11T09:18:02;23.10;;;14.02;;
52972;SDS011;38837;48.916;2.336;2024-01-11T09:20:05;24.05;;;12.85;;
52972;SDS011;38837;48.916;2.336;2024-01-11T09:22:07;24.45;;;14.15;;
52972;SDS011;38837;48.916;2.336;2024-01-11T09:24:11;28.55;;;14.25;;
52972;SDS011;38837;48.916;2.336;2024-01-11T09:26:13;22.92;;;14.27;;
52972;SDS011;38837;48.916;2.336;2024-01-11T09:28:15;24.83;;;15.02;;
52972;SDS011;38837;48.916;2.336;2024-01-11T09:30:17;20.33;;;13.65;;
52972;SDS011;38837;48.916;2.336;2024-01-11T09:32:19;23.95;;;14.13;;
52972;SDS011;38837;48.916;2.336;2024-01-11T09:34:21;26.77;;;14.88;;
52972;SDS011;38837;48.916;2.336;2024-01-11T09:36:23;22.02;;;14.07;;
52972;SDS011;38837;48.916;2.336;2024-01-11T09:38:25;25.55;;;15.40;;
52972;SDS011;38837;48.916;2.336;2024-01-11T09:40:28;24.35;;;14.30;;
52972;SDS011;38837;48.916;2.336;2024-01-11T09:42:30;27.85;;;14.27;;
52972;SDS011;38837;48.916;2.336;2024-01-11T09:44:32;23.45;;;14.32;;
52972;SDS011;38837;48.916;2.336;2024-01-11T09:46:35;23.17;;;13.45;;
52972;SDS011;38837;48.916;2.336;2024-01-11T09:48:38;23.25;;;14.68;;
52972;SDS011;38837;48.916;2.336;2024-01-11T09:50:40;22.17;;;13.75;;
52972;SDS011;38837;48.916;2.336;2024-01-11T09:52:45;23.55;;;14.55;;
52972;SDS011;38837;48.916;2.336;2024-01-11T09:54:51;26.58;;;15.27;;
52972;SDS011;38837;48.916;2.336;2024-01-11T09:56:56;27.92;;;15.52;;
52972;SDS011;38837;48.916;2.336;2024-01-11T09:59:01;28.85;;;15.00;;
52972;SDS011;38837;48.916;2.336;2024-01-11T10:01:07;22.30;;;13.60;;
52972;SDS011;38837;48.916;2.336;2024-01-11T10:03:11;23.63;;;14.23;;
52972;SDS011;38837;48.916;2.336;2024-01-11T10:05:14;23.92;;;14.10;;
52972;SDS011;38837;48.916;2.336;2024-01-11T10:07:22;24.27;;;13.82;;
52972;SDS011;38837;48.916;2.336;2024-01-11T10:09:24;25.65;;;14.05;;
52972;SDS011;38837;48.916;2.336;2024-01-11T10:11:27;25.67;;;15.27;;
52972;SDS011;38837;48.916;2.336;2024-01-11T10:13:30;25.27;;;14.73;;
52972;SDS011;38837;48.916;2.336;2024-01-11T10:17:37;25.38;;;14.80;;
52972;SDS011;38837;48.916;2.336;2024-01-11T10:19:44;24.02;;;14.35;;
52972;SDS011;38837;48.916;2.336;2024-01-11T10:21:46;29.90;;;16.27;;
52972;SDS011;38837;48.916;2.336;2024-01-11T10:23:48;27.25;;;16.00;;
52972;SDS011;38837;48.916;2.336;2024-01-11T10:25:51;29.02;;;15.75;;
52972;SDS011;38837;48.916;2.336;2024-01-11T10:27:54;36.10;;;18.23;;
52972;SDS011;38837;48.916;2.336;2024-01-11T10:29:56;41.00;;;17.88;;
52972;SDS011;38837;48.916;2.336;2024-01-11T10:31:59;34.15;;;17.52;;
52972;SDS011;38837;48.916;2.336;2024-01-11T10:34:01;38.85;;;18.75;;
52972;SDS011;38837;48.916;2.336;2024-01-11T10:36:03;33.70;;;18.20;;
52972;SDS011;38837;48.916;2.336;2024-01-11T10:38:08;39.75;;;19.10;;
52972;SDS011;38837;48.916;2.336;2024-01-11T10:40:11;30.33;;;17.58;;
52972;SDS011;38837;48.916;2.336;2024-01-11T10:42:14;31.87;;;18.60;;
52972;SDS011;38837;48.916;2.336;2024-01-11T10:44:21;30.95;;;18.00;;
52972;SDS011;38837;48.916;2.336;2024-01-11T10:46:24;31.25;;;17.42;;
52972;SDS011;38837;48.916;2.336;2024-01-11T10:48:27;32.20;;;19.30;;
52972;SDS011;38837;48.916;2.336;2024-01-11T10:50:34;47.15;;;20.42;;
52972;SDS011;38837;48.916;2.336;2024-01-11T10:52:42;41.90;;;19.77;;
52972;SDS011;38837;48.916;2.336;2024-01-11T10:54:56;37.22;;;21.00;;
52972;SDS011;38837;48.916;2.336;2024-01-11T10:57:00;50.33;;;20.83;;
52972;SDS011;38837;48.916;2.336;2024-01-11T10:59:06;51.33;;;22.38;;
52972;SDS011;38837;48.916;2.336;2024-01-11T11:01:11;55.05;;;20.80;;
52972;SDS011;38837;48.916;2.336;2024-01-11T11:03:14;41.35;;;19.98;;
52972;SDS011;38837;48.916;2.336;2024-01-11T11:05:19;42.42;;;21.65;;
52972;SDS011;38837;48.916;2.336;2024-01-11T11:07:22;38.00;;;21.23;;
52972;SDS011;38837;48.916;2.336;2024-01-11T11:09:25;47.75;;;21.15;;
52972;SDS011;38837;48.916;2.336;2024-01-11T11:15:36;41.55;;;19.90;;
52972;SDS011;38837;48.916;2.336;2024-01-11T11:17:40;37.58;;;19.05;;
52972;SDS011;38837;48.916;2.336;2024-01-11T11:19:43;42.00;;;20.17;;
52972;SDS011;38837;48.916;2.336;2024-01-11T11:21:45;43.80;;;19.90;;
52972;SDS011;38837;48.916;2.336;2024-01-11T11:23:49;32.03;;;19.15;;
52972;SDS011;38837;48.916;2.336;2024-01-11T11:25:53;35.72;;;18.27;;
52972;SDS011;38837;48.916;2.336;2024-01-11T11:27:58;32.05;;;18.02;;
52972;SDS011;38837;48.916;2.336;2024-01-11T11:30:05;34.88;;;18.25;;
52972;SDS011;38837;48.916;2.336;2024-01-11T11:32:08;29.80;;;17.92;;
52972;SDS011;38837;48.916;2.336;2024-01-11T11:34:12;30.45;;;17.80;;
52972;SDS011;38837;48.916;2.336;2024-01-11T11:36:14;33.42;;;17.83;;
52972;SDS011;38837;48.916;2.336;2024-01-11T11:40:46;31.92;;;18.88;;
52972;SDS011;38837;48.916;2.336;2024-01-11T11:42:52;32.05;;;18.30;;
52972;SDS011;38837;48.916;2.336;2024-01-11T11:44:55;30.38;;;18.58;;
52972;SDS011;38837;48.916;2.336;2024-01-11T11:51:46;43.28;;;19.95;;
52972;SDS011;38837;48.916;2.336;2024-01-11T11:53:50;30.30;;;18.38;;
52972;SDS011;38837;48.916;2.336;2024-01-11T11:55:53;35.10;;;19.35;;
52972;SDS011;38837;48.916;2.336;2024-01-11T11:57:55;31.35;;;19.65;;
52972;SDS011;38837;48.916;2.336;2024-01-11T11:59:57;42.60;;;21.33;;
52972;SDS011;38837;48.916;2.336;2024-01-11T12:01:59;34.90;;;18.02;;
52972;SDS011;38837;48.916;2.336;2024-01-11T12:04:02;35.85;;;19.95;;
52972;SDS011;38837;48.916;2.336;2024-01-11T12:06:04;32.45;;;19.25;;
52972;SDS011;38837;48.916;2.336;2024-01-11T12:08:08;32.08;;;19.70;;
52972;SDS011;38837;48.916;2.336;2024-01-11T12:10:10;37.38;;;21.45;;
52972;SDS011;38837;48.916;2.336;2024-01-11T12:12:13;41.83;;;20.10;;